Time;durP1;ratioP1;P1;durP2;ratioP2;P2;SDS_P1;SDS_P2;PMS_P1;PMS_P2;Temp;Humidity;BMP_temperature;BMP_pressure;BME280_temperature;BME280_humidity;BME280_pressure;Samples;Min_cycle;Max_cycle;Signal;HPM_P1;HPM_P2
2023/09/30 00:00:08;;;;;;;4.45;2.13;;;;;;;;;;5055089;28;20013;-87
2023/09/30 00:02:37;;;;;;;3.63;2.30;;;;;;;;;;5074358;28;20024;-87
2023/09/30 00:05:03;;;;;;;9.80;3.15;;;;;;;;;;5056857;28;20026;-87
2023/09/30 00:07:29;;;;;;;11.02;3.65;;;;;;;;;;5055996;28;20020;-86
2023/09/30 00:09:54;;;;;;;6.97;2.30;;;;;;;;;;5056426;28;20174;-87
2023/09/30 00:12:20;;;;;;;6.70;2.80;;;;;;;;;;5055881;28;20024;-87
2023/09/30 00:14:48;;;;;;;3.88;1.75;;;;;;;;;;5056945;28;20036;-87
2023/09/30 00:17:13;;;;;;;4.40;2.10;;;;;;;;;;5055531;28;20419;-87
2023/09/30 00:19:39;;;;;;;6.88;2.22;;;;;;;;;;5055567;28;20020;-87
2023/09/30 00:22:04;;;;;;;4.03;2.35;;;;;;;;;;5055737;28;20363;-87
2023/09/30 00:24:29;;;;;;;9.15;2.58;;;;;;;;;;5055188;28;20031;-87
2023/09/30 00:26:58;;;;;;;7.53;2.58;;;;;;;;;;5055262;28;20024;-87
2023/09/30 00:29:23;;;;;;;3.97;2.33;;;;;;;;;;5046689;28;20073;-87
2023/09/30 00:31:48;;;;;;;7.07;2.45;;;;;;;;;;5050411;28;20021;-87
2023/09/30 00:34:14;;;;;;;8.27;3.10;;;;;;;;;;5055858;28;20058;-87
2023/09/30 00:36:39;;;;;;;4.53;2.47;;;;;;;;;;5055182;28;20024;-87
2023/09/30 00:39:04;;;;;;;3.83;2.03;;;;;;;;;;5055513;28;20013;-87
2023/09/30 00:41:29;;;;;;;6.55;3.45;;;;;;;;;;5055315;28;20143;-87
2023/09/30 00:43:55;;;;;;;5.25;2.42;;;;;;;;;;5056093;28;20486;-87
2023/09/30 00:46:28;;;;;;;6.32;2.50;;;;;;;;;;5058863;28;20020;-87
2023/09/30 00:48:55;;;;;;;4.32;2.15;;;;;;;;;;5058772;28;20024;-86
2023/09/30 00:51:21;;;;;;;4.45;2.20;;;;;;;;;;5092752;28;20021;-87
2023/09/30 00:53:46;;;;;;;5.88;2.25;;;;;;;;;;5059131;28;20013;-86
2023/09/30 00:56:11;;;;;;;5.88;2.75;;;;;;;;;;5064297;28;20017;-87
2023/09/30 00:58:38;;;;;;;5.25;2.60;;;;;;;;;;5059363;28;20482;-87
2023/09/30 01:01:03;;;;;;;6.63;2.72;;;;;;;;;;5059518;28;20070;-87
2023/09/30 01:03:29;;;;;;;19.30;3.20;;;;;;;;;;5062814;28;20021;-87
2023/09/30 01:05:54;;;;;;;10.63;3.38;;;;;;;;;;5059501;28;20132;-87
2023/09/30 01:08:20;;;;;;;8.68;3.60;;;;;;;;;;5061525;28;20042;-87
2023/09/30 01:10:45;;;;;;;8.73;4.50;;;;;;;;;;5061952;28;20052;-87
2023/09/30 01:13:11;;;;;;;14.85;4.72;;;;;;;;;;5078300;28;20017;-87
2023/09/30 01:15:36;;;;;;;10.77;4.78;;;;;;;;;;5076825;28;20016;-87
2023/09/30 01:18:02;;;;;;;14.18;5.65;;;;;;;;;;5092539;28;20013;-87
2023/09/30 01:20:28;;;;;;;6.72;3.90;;;;;;;;;;5058622;28;20067;-87
2023/09/30 01:22:55;;;;;;;8.27;4.03;;;;;;;;;;5058531;28;20020;-86
2023/09/30 01:25:20;;;;;;;12.05;4.47;;;;;;;;;;5059340;28;20028;-87
2023/09/30 01:27:45;;;;;;;6.47;3.58;;;;;;;;;;5058705;28;20050;-87
2023/09/30 01:30:11;;;;;;;5.28;3.00;;;;;;;;;;5058685;28;20024;-87
2023/09/30 01:32:36;;;;;;;8.25;3.50;;;;;;;;;;5055137;28;20059;-87
2023/09/30 01:35:02;;;;;;;9.60;4.57;;;;;;;;;;5048877;28;20017;-87
2023/09/30 01:37:30;;;;;;;10.10;4.78;;;;;;;;;;5057645;28;20024;-87
2023/09/30 01:39:55;;;;;;;8.52;3.65;;;;;;;;;;5058094;28;20510;-87
2023/09/30 01:42:23;;;;;;;8.10;3.95;;;;;;;;;;5057972;28;20021;-86
2023/09/30 01:44:48;;;;;;;7.88;3.95;;;;;;;;;;5058020;28;20054;-87
2023/09/30 01:47:13;;;;;;;8.77;4.22;;;;;;;;;;5057780;28;20016;-87
2023/09/30 01:49:38;;;;;;;8.40;3.85;;;;;;;;;;5058172;28;20034;-87
2023/09/30 01:52:04;;;;;;;7.90;4.00;;;;;;;;;;5057652;28;20025;-87
2023/09/30 01:54:29;;;;;;;21.00;4.22;;;;;;;;;;5057640;28;20149;-87
2023/09/30 01:56:54;;;;;;;8.10;4.05;;;;;;;;;;5056901;28;20017;-87
2023/09/30 01:59:20;;;;;;;9.02;3.40;;;;;;;;;;5057337;28;20044;-87
2023/09/30 02:01:46;;;;;;;6.65;3.50;;;;;;;;;;5057741;28;20020;-87
2023/09/30 02:04:12;;;;;;;10.35;3.83;;;;;;;;;;5075735;28;20029;-87
2023/09/30 02:06:38;;;;;;;7.38;2.85;;;;;;;;;;5076102;28;20025;-87
2023/09/30 02:09:04;;;;;;;6.82;3.20;;;;;;;;;;5057093;28;20455;-86
2023/09/30 02:11:33;;;;;;;10.25;3.40;;;;;;;;;;5057391;28;20037;-87
2023/09/30 02:14:02;;;;;;;9.50;3.63;;;;;;;;;;5061026;28;20357;-87
2023/09/30 02:16:31;;;;;;;7.03;3.60;;;;;;;;;;5084353;28;20027;-84
2023/09/30 02:18:56;;;;;;;9.60;4.03;;;;;;;;;;5066936;28;20024;-84
2023/09/30 02:21:22;;;;;;;8.02;3.45;;;;;;;;;;5061764;28;20116;-86
2023/09/30 02:23:48;;;;;;;6.68;3.70;;;;;;;;;;5064305;28;20055;-85
2023/09/30 02:26:17;;;;;;;5.88;3.80;;;;;;;;;;5095501;28;20024;-86
2023/09/30 02:28:42;;;;;;;9.68;3.67;;;;;;;;;;5090851;28;20024;-86
2023/09/30 02:31:08;;;;;;;9.70;3.40;;;;;;;;;;5075159;28;20031;-85
2023/09/30 02:33:35;;;;;;;11.80;3.10;;;;;;;;;;5057581;28;20027;-86
2023/09/30 02:36:01;;;;;;;8.52;3.05;;;;;;;;;;5061936;28;20024;-86
2023/09/30 02:38:26;;;;;;;5.35;2.72;;;;;;;;;;5057782;28;20074;-85
2023/09/30 02:40:51;;;;;;;5.32;2.72;;;;;;;;;;5057523;28;20024;-85
2023/09/30 02:43:17;;;;;;;5.40;2.20;;;;;;;;;;5056903;28;20492;-85
2023/09/30 02:45:43;;;;;;;5.75;2.95;;;;;;;;;;5056030;28;20095;-85
2023/09/30 02:48:09;;;;;;;4.25;2.33;;;;;;;;;;5056838;28;20532;-85
2023/09/30 02:50:34;;;;;;;13.88;3.25;;;;;;;;;;5056532;28;20115;-85
2023/09/30 02:53:00;;;;;;;6.85;3.28;;;;;;;;;;5056643;28;20047;-86
2023/09/30 02:55:25;;;;;;;7.00;3.60;;;;;;;;;;5052184;28;20103;-85
2023/09/30 02:57:50;;;;;;;7.78;3.88;;;;;;;;;;5051728;28;20029;-86
2023/09/30 03:00:25;;;;;;;8.43;3.78;;;;;;;;;;5085951;28;20027;-85
2023/09/30 03:02:54;;;;;;;7.03;3.65;;;;;;;;;;5056378;28;20100;-85
2023/09/30 03:05:20;;;;;;;10.05;3.40;;;;;;;;;;5054942;28;20056;-86
2023/09/30 03:07:46;;;;;;;11.85;3.88;;;;;;;;;;5056173;28;20063;-85
2023/09/30 03:10:13;;;;;;;7.15;3.50;;;;;;;;;;5073809;28;20051;-85
2023/09/30 03:12:39;;;;;;;6.78;3.38;;;;;;;;;;5056080;28;20368;-85
2023/09/30 03:15:05;;;;;;;6.72;3.65;;;;;;;;;;5056115;28;20028;-86
2023/09/30 03:17:33;;;;;;;9.90;3.40;;;;;;;;;;5058978;28;20070;-86
2023/09/30 03:20:00;;;;;;;11.20;3.53;;;;;;;;;;5056613;28;20383;-85
2023/09/30 03:22:26;;;;;;;6.40;3.20;;;;;;;;;;5056573;28;20025;-86
2023/09/30 03:24:54;;;;;;;7.68;3.65;;;;;;;;;;5053412;28;20028;-86
2023/09/30 03:27:20;;;;;;;7.93;3.13;;;;;;;;;;5053656;28;20034;-86
2023/09/30 03:29:45;;;;;;;6.97;3.25;;;;;;;;;;5056902;28;20097;-86
2023/09/30 03:32:11;;;;;;;5.63;3.00;;;;;;;;;;5056132;28;20025;-86
2023/09/30 03:34:40;;;;;;;6.50;3.35;;;;;;;;;;5063546;28;20020;-85
2023/09/30 03:37:09;;;;;;;6.78;3.78;;;;;;;;;;5060350;28;20021;-86
2023/09/30 03:39:35;;;;;;;6.88;3.05;;;;;;;;;;5047365;28;20042;-85
2023/09/30 03:42:01;;;;;;;8.75;3.95;;;;;;;;;;5059900;28;20028;-83
2023/09/30 03:44:26;;;;;;;7.25;3.75;;;;;;;;;;5056935;28;20067;-85
2023/09/30 03:46:52;;;;;;;6.88;3.47;;;;;;;;;;5059792;28;20024;-86
2023/09/30 03:49:19;;;;;;;8.05;3.95;;;;;;;;;;5055193;28;20111;-86
2023/09/30 03:51:53;;;;;;;8.00;3.35;;;;;;;;;;5055494;28;20028;-86
2023/09/30 03:54:19;;;;;;;6.07;3.38;;;;;;;;;;5055523;28;20028;-86
2023/09/30 03:56:45;;;;;;;6.32;3.08;;;;;;;;;;5055443;28;20065;-86
2023/09/30 03:59:10;;;;;;;6.35;3.10;;;;;;;;;;5054691;28;20025;-86
2023/09/30 04:01:39;;;;;;;6.28;3.15;;;;;;;;;;5055181;28;20164;-85
2023/09/30 04:04:09;;;;;;;6.40;3.28;;;;;;;;;;5055368;28;20111;-85
2023/09/30 04:06:38;;;;;;;8.10;3.22;;;;;;;;;;5055231;28;20044;-85
2023/09/30 04:09:14;;;;;;;11.32;3.00;;;;;;;;;;5087902;28;20119;-85
2023/09/30 04:11:42;;;;;;;5.53;2.80;;;;;;;;;;5054997;28;20498;-85
2023/09/30 04:14:07;;;;;;;5.68;2.67;;;;;;;;;;5054946;28;20380;-84
2023/09/30 04:16:33;;;;;;;6.15;3.05;;;;;;;;;;5088516;28;20460;-84
2023/09/30 04:19:08;;;;;;;6.22;3.33;;;;;;;;;;5054505;28;20028;-84
2023/09/30 04:21:34;;;;;;;4.70;2.60;;;;;;;;;;5055109;28;20340;-83
2023/09/30 04:23:59;;;;;;;7.40;2.35;;;;;;;;;;5055205;28;20025;-85
2023/09/30 04:26:25;;;;;;;5.90;2.67;;;;;;;;;;5055625;28;20483;-85
2023/09/30 04:28:51;;;;;;;4.72;2.40;;;;;;;;;;5089408;28;20107;-85
2023/09/30 04:31:18;;;;;;;6.95;3.33;;;;;;;;;;5055422;28;20025;-85
2023/09/30 04:33:43;;;;;;;5.65;2.70;;;;;;;;;;5056242;28;20447;-85
2023/09/30 04:36:10;;;;;;;11.43;3.10;;;;;;;;;;5069542;28;20025;-92
2023/09/30 04:38:38;;;;;;;9.20;2.90;;;;;;;;;;5068769;28;20029;-92
2023/09/30 04:41:07;;;;;;;7.80;3.17;;;;;;;;;;5054700;28;20058;-87
2023/09/30 04:43:33;;;;;;;7.60;3.15;;;;;;;;;;5061386;28;20075;-85
2023/09/30 04:45:58;;;;;;;4.95;2.60;;;;;;;;;;5044574;28;20069;-86
2023/09/30 04:48:25;;;;;;;6.18;2.88;;;;;;;;;;5057943;28;20028;-85
2023/09/30 04:50:55;;;;;;;7.05;2.97;;;;;;;;;;5060284;28;20017;-85
2023/09/30 04:53:23;;;;;;;6.78;3.13;;;;;;;;;;5055194;28;20081;-86
2023/09/30 04:55:51;;;;;;;5.97;2.97;;;;;;;;;;5064608;28;20028;-85
2023/09/30 04:58:17;;;;;;;9.52;3.95;;;;;;;;;;5056451;28;20028;-85
2023/09/30 05:00:43;;;;;;;12.35;4.18;;;;;;;;;;5058881;28;20029;-86
2023/09/30 05:03:08;;;;;;;8.98;3.90;;;;;;;;;;5055802;28;20056;-86
2023/09/30 05:05:34;;;;;;;6.97;3.90;;;;;;;;;;5055579;28;20024;-86
2023/09/30 05:07:59;;;;;;;9.30;4.15;;;;;;;;;;5055237;28;20205;-86
2023/09/30 05:10:25;;;;;;;7.95;4.03;;;;;;;;;;5055212;28;20158;-85
2023/09/30 05:12:53;;;;;;;4.72;2.55;;;;;;;;;;5055136;28;20064;-85
2023/09/30 05:15:19;;;;;;;5.80;2.80;;;;;;;;;;5054507;28;20035;-85
2023/09/30 05:17:45;;;;;;;13.40;3.85;;;;;;;;;;5054897;28;20052;-86
2023/09/30 05:20:12;;;;;;;10.57;3.60;;;;;;;;;;5054473;28;20020;-86
2023/09/30 05:22:39;;;;;;;5.85;2.97;;;;;;;;;;5054625;28;20110;-86
2023/09/30 05:25:04;;;;;;;7.55;3.53;;;;;;;;;;5055084;28;20111;-86
2023/09/30 05:27:29;;;;;;;8.00;3.28;;;;;;;;;;5054719;28;20103;-86
2023/09/30 05:29:55;;;;;;;12.98;3.20;;;;;;;;;;5054767;28;20032;-86
2023/09/30 05:32:21;;;;;;;7.53;3.20;;;;;;;;;;5057730;28;20036;-86
2023/09/30 05:34:48;;;;;;;7.93;3.22;;;;;;;;;;5056344;28;20021;-86
2023/09/30 05:37:21;;;;;;;7.07;3.08;;;;;;;;;;5061458;28;20365;-86
2023/09/30 05:39:49;;;;;;;6.45;3.25;;;;;;;;;;5058578;28;20028;-86
2023/09/30 05:42:18;;;;;;;6.57;3.00;;;;;;;;;;5058797;28;20021;-86
2023/09/30 05:44:48;;;;;;;9.60;3.83;;;;;;;;;;5062162;28;20024;-86
2023/09/30 05:47:15;;;;;;;7.13;3.40;;;;;;;;;;5066508;28;20088;-86
2023/09/30 05:49:41;;;;;;;11.07;3.75;;;;;;;;;;5082262;28;20024;-86
2023/09/30 05:52:07;;;;;;;11.18;4.20;;;;;;;;;;5064202;28;20036;-85
2023/09/30 05:54:35;;;;;;;7.50;3.72;;;;;;;;;;5064988;28;20021;-86
2023/09/30 05:57:02;;;;;;;7.78;4.32;;;;;;;;;;5063349;28;20032;-84
2023/09/30 05:59:28;;;;;;;7.72;3.97;;;;;;;;;;5064382;28;20016;-91
2023/09/30 06:01:57;;;;;;;8.90;3.97;;;;;;;;;;5057703;28;20030;-91
2023/09/30 06:04:22;;;;;;;9.48;4.28;;;;;;;;;;5058787;28;20099;-91
2023/09/30 06:06:48;;;;;;;14.23;4.80;;;;;;;;;;5057961;28;20070;-91
2023/09/30 06:09:13;;;;;;;9.70;4.20;;;;;;;;;;5075809;28;20016;-91
2023/09/30 06:11:41;;;;;;;10.05;3.70;;;;;;;;;;5056876;28;20035;-92
2023/09/30 06:14:06;;;;;;;8.60;3.83;;;;;;;;;;5057669;28;20020;-91
2023/09/30 06:16:32;;;;;;;5.43;2.72;;;;;;;;;;5057227;28;20047;-92
2023/09/30 06:18:57;;;;;;;6.93;3.22;;;;;;;;;;5057789;28;20028;-92
2023/09/30 06:21:24;;;;;;;7.15;3.50;;;;;;;;;;5091359;28;20028;-91
2023/09/30 06:23:52;;;;;;;8.40;3.75;;;;;;;;;;5057663;28;20047;-92
2023/09/30 06:26:18;;;;;;;6.57;3.33;;;;;;;;;;5051658;28;20033;-92
2023/09/30 06:28:44;;;;;;;9.35;4.05;;;;;;;;;;5085992;28;20047;-92
2023/09/30 06:31:13;;;;;;;9.70;4.68;;;;;;;;;;5056787;28;20391;-92
2023/09/30 06:33:39;;;;;;;11.07;4.82;;;;;;;;;;5057735;28;20409;-92
2023/09/30 06:36:08;;;;;;;12.73;4.90;;;;;;;;;;5056719;28;20052;-92
2023/09/30 06:38:34;;;;;;;9.45;4.68;;;;;;;;;;5056473;28;20551;-92
2023/09/30 06:41:01;;;;;;;13.68;6.00;;;;;;;;;;5057188;28;20060;-92
2023/09/30 06:43:27;;;;;;;10.73;5.07;;;;;;;;;;5074654;28;20024;-92
2023/09/30 06:45:54;;;;;;;14.07;5.55;;;;;;;;;;5047291;28;20059;-92
2023/09/30 06:48:19;;;;;;;15.05;5.68;;;;;;;;;;5048912;28;20048;-92
2023/09/30 06:50:48;;;;;;;17.15;5.53;;;;;;;;;;5055742;28;20021;-92
2023/09/30 06:53:21;;;;;;;14.52;5.72;;;;;;;;;;5056767;28;20029;-92
2023/09/30 06:55:49;;;;;;;19.92;6.47;;;;;;;;;;5092714;28;20097;-94
2023/09/30 06:58:18;;;;;;;17.90;6.50;;;;;;;;;;5061894;28;20081;-92
2023/09/30 07:00:44;;;;;;;13.55;6.28;;;;;;;;;;5061676;28;20027;-92
2023/09/30 07:03:09;;;;;;;18.80;6.35;;;;;;;;;;5062264;28;20124;-91
2023/09/30 07:05:39;;;;;;;13.15;6.38;;;;;;;;;;5061344;28;20029;-92
2023/09/30 07:08:05;;;;;;;16.40;7.40;;;;;;;;;;5063597;28;20111;-92
2023/09/30 07:10:31;;;;;;;15.90;6.65;;;;;;;;;;5056048;28;20467;-92
2023/09/30 07:12:56;;;;;;;12.05;5.88;;;;;;;;;;5060576;28;20043;-92
2023/09/30 07:15:24;;;;;;;14.63;7.03;;;;;;;;;;5051646;28;20016;-92
2023/09/30 07:17:50;;;;;;;18.55;7.28;;;;;;;;;;5054554;28;20086;-92
2023/09/30 07:20:15;;;;;;;14.93;6.18;;;;;;;;;;5055257;28;20024;-92
2023/09/30 07:22:41;;;;;;;11.93;5.88;;;;;;;;;;5055218;28;20053;-92
2023/09/30 07:25:06;;;;;;;20.45;6.80;;;;;;;;;;5056317;28;20051;-93
2023/09/30 07:27:32;;;;;;;15.48;5.90;;;;;;;;;;5055549;28;20089;-93
2023/09/30 07:29:57;;;;;;;17.73;6.15;;;;;;;;;;5055235;28;20083;-92
2023/09/30 07:32:23;;;;;;;17.38;6.43;;;;;;;;;;5054438;28;20020;-92
2023/09/30 07:34:49;;;;;;;17.48;6.70;;;;;;;;;;5051306;28;20100;-92
2023/09/30 07:37:14;;;;;;;17.00;6.05;;;;;;;;;;5044535;28;20066;-92
2023/09/30 07:39:39;;;;;;;16.73;5.95;;;;;;;;;;5055544;28;20070;-92
2023/09/30 07:42:05;;;;;;;13.32;5.13;;;;;;;;;;5054067;28;20040;-92
2023/09/30 07:44:30;;;;;;;16.60;5.72;;;;;;;;;;5055099;28;20024;-93
2023/09/30 07:46:55;;;;;;;17.30;6.75;;;;;;;;;;5055261;28;20081;-93
2023/09/30 07:49:23;;;;;;;19.33;6.95;;;;;;;;;;5055019;28;20028;-93
2023/09/30 07:51:49;;;;;;;18.73;6.68;;;;;;;;;;5051914;28;20322;-93
2023/09/30 07:54:15;;;;;;;18.00;5.57;;;;;;;;;;5056321;28;20044;-93
2023/09/30 07:56:40;;;;;;;21.17;6.72;;;;;;;;;;5055480;28;20035;-92
2023/09/30 07:59:08;;;;;;;18.98;6.03;;;;;;;;;;5054059;28;20031;-93
2023/09/30 08:01:33;;;;;;;19.58;6.88;;;;;;;;;;5056230;28;20036;-93
2023/09/30 08:03:59;;;;;;;18.23;5.85;;;;;;;;;;5073973;28;20028;-93
2023/09/30 08:06:27;;;;;;;17.08;6.43;;;;;;;;;;5056705;28;20103;-92
2023/09/30 08:08:52;;;;;;;19.08;5.85;;;;;;;;;;5054291;28;20119;-94
2023/09/30 08:11:18;;;;;;;18.52;6.45;;;;;;;;;;5054896;28;20051;-92
2023/09/30 08:13:44;;;;;;;18.55;6.47;;;;;;;;;;5058581;28;20131;-92
2023/09/30 08:16:13;;;;;;;26.67;6.57;;;;;;;;;;5057384;28;20055;-93
2023/09/30 08:18:39;;;;;;;17.15;6.25;;;;;;;;;;5077104;28;20021;-93
2023/09/30 08:21:04;;;;;;;24.92;6.93;;;;;;;;;;5056617;28;20032;-92
2023/09/30 08:23:30;;;;;;;16.95;5.60;;;;;;;;;;5060254;28;20021;-93
2023/09/30 08:25:59;;;;;;;16.67;5.32;;;;;;;;;;5055352;28;20059;-92
2023/09/30 08:28:25;;;;;;;19.20;6.35;;;;;;;;;;5054281;28;20504;-93
2023/09/30 08:30:54;;;;;;;17.67;5.75;;;;;;;;;;5055032;28;20111;-92
2023/09/30 08:33:19;;;;;;;19.35;6.65;;;;;;;;;;5054881;28;20380;-92
2023/09/30 08:35:45;;;;;;;23.75;6.70;;;;;;;;;;5050768;28;20020;-92
2023/09/30 08:38:18;;;;;;;17.15;5.95;;;;;;;;;;5054353;28;20020;-92
2023/09/30 08:40:44;;;;;;;17.77;7.35;;;;;;;;;;5054582;28;20020;-92
2023/09/30 08:43:11;;;;;;;16.92;6.22;;;;;;;;;;5054997;28;20025;-92
2023/09/30 08:45:42;;;;;;;16.25;5.90;;;;;;;;;;5070078;28;20023;-92
2023/09/30 08:48:07;;;;;;;23.58;7.68;;;;;;;;;;5054040;28;20096;-92
2023/09/30 08:50:33;;;;;;;18.55;7.25;;;;;;;;;;5055297;28;20026;-92
2023/09/30 08:53:00;;;;;;;25.95;6.97;;;;;;;;;;5050949;28;20336;-92
2023/09/30 08:55:27;;;;;;;24.70;8.55;;;;;;;;;;5046933;28;20591;-92
2023/09/30 08:57:53;;;;;;;26.33;7.25;;;;;;;;;;5048307;28;20037;-93
2023/09/30 09:00:20;;;;;;;26.48;7.57;;;;;;;;;;5047035;28;20032;-91
2023/09/30 09:02:50;;;;;;;22.13;7.75;;;;;;;;;;5054872;28;20021;-92
2023/09/30 09:05:21;;;;;;;23.67;7.65;;;;;;;;;;5056453;28;20051;-91
2023/09/30 09:07:47;;;;;;;18.50;6.38;;;;;;;;;;5058421;28;20028;-91
2023/09/30 09:10:13;;;;;;;19.92;5.55;;;;;;;;;;5058881;28;20036;-92
2023/09/30 09:12:39;;;;;;;21.40;5.82;;;;;;;;;;5062070;28;20115;-91
2023/09/30 09:15:06;;;;;;;19.42;6.10;;;;;;;;;;5062986;28;20051;-92
2023/09/30 09:17:42;;;;;;;21.52;7.20;;;;;;;;;;5064802;28;20051;-89
2023/09/30 09:20:09;;;;;;;23.38;7.40;;;;;;;;;;5059253;28;20378;-86
2023/09/30 09:22:49;;;;;;;22.55;6.53;;;;;;;;;;5049461;28;20020;-86
2023/09/30 09:25:15;;;;;;;26.25;6.95;;;;;;;;;;5058451;28;20379;-90
2023/09/30 09:27:40;;;;;;;22.98;5.55;;;;;;;;;;5076756;28;20103;-90
2023/09/30 09:30:25;;;;;;;24.95;7.22;;;;;;;;;;5056150;28;20024;-89
2023/09/30 09:33:01;;;;;;;26.05;7.57;;;;;;;;;;5062095;28;20395;-91
2023/09/30 09:35:29;;;;;;;24.98;6.70;;;;;;;;;;5058787;28;20009;-91
2023/09/30 09:38:14;;;;;;;23.58;6.65;;;;;;;;;;5057670;28;20024;-91
2023/09/30 09:40:40;;;;;;;18.13;7.18;;;;;;;;;;5053766;28;20033;-90
2023/09/30 09:43:05;;;;;;;18.20;6.15;;;;;;;;;;5048662;28;20026;-90
2023/09/30 09:45:35;;;;;;;25.88;6.88;;;;;;;;;;5058256;28;20035;-91
2023/09/30 09:48:01;;;;;;;21.02;6.28;;;;;;;;;;5057534;28;20017;-92
2023/09/30 09:50:27;;;;;;;18.08;5.22;;;;;;;;;;5058634;28;20392;-92
2023/09/30 09:52:54;;;;;;;14.60;5.38;;;;;;;;;;5058540;28;20024;-91
2023/09/30 09:55:21;;;;;;;13.73;5.75;;;;;;;;;;5058735;28;20077;-88
2023/09/30 09:57:47;;;;;;;24.73;5.80;;;;;;;;;;5057629;28;20016;-88
2023/09/30 10:00:16;;;;;;;18.25;4.78;;;;;;;;;;5053433;28;20093;-88
2023/09/30 10:02:41;;;;;;;17.50;5.70;;;;;;;;;;5058258;28;20395;-88
2023/09/30 10:05:11;;;;;;;17.25;4.90;;;;;;;;;;5051061;28;20052;-88
2023/09/30 10:07:38;;;;;;;14.63;3.95;;;;;;;;;;5050160;28;20021;-88
2023/09/30 10:10:06;;;;;;;19.58;5.32;;;;;;;;;;5057712;28;20092;-87
2023/09/30 10:12:36;;;;;;;18.38;4.45;;;;;;;;;;5059451;28;20027;-88
2023/09/30 10:15:22;;;;;;;14.70;4.32;;;;;;;;;;5058187;28;20444;-87
2023/09/30 10:18:11;;;;;;;12.82;4.45;;;;;;;;;;5057557;28;20089;-87
2023/09/30 10:20:40;;;;;;;12.40;4.15;;;;;;;;;;5053693;28;20029;-87
2023/09/30 10:23:22;;;;;;;10.40;3.30;;;;;;;;;;5047647;28;20124;-88
2023/09/30 10:25:54;;;;;;;15.20;4.55;;;;;;;;;;5076840;28;20017;-86
2023/09/30 10:28:39;;;;;;;10.65;3.88;;;;;;;;;;5092532;28;20020;-87
2023/09/30 10:31:23;;;;;;;11.48;3.95;;;;;;;;;;5061957;28;20364;-86
2023/09/30 10:34:01;;;;;;;13.73;4.53;;;;;;;;;;5052384;28;20145;-87
2023/09/30 10:36:40;;;;;;;13.63;3.63;;;;;;;;;;5065530;28;20020;-87
2023/09/30 10:39:12;;;;;;;11.70;3.17;;;;;;;;;;5055735;28;20016;-87
2023/09/30 10:41:45;;;;;;;7.40;3.42;;;;;;;;;;5074121;28;20604;-87
2023/09/30 10:44:25;;;;;;;13.40;3.45;;;;;;;;;;5091141;28;20472;-87
2023/09/30 10:46:50;;;;;;;8.52;3.05;;;;;;;;;;5090312;28;20028;-86
2023/09/30 10:49:19;;;;;;;8.95;3.05;;;;;;;;;;5053789;28;20159;-87
2023/09/30 10:51:47;;;;;;;8.15;3.53;;;;;;;;;;5046684;28;20448;-87
2023/09/30 10:54:13;;;;;;;8.50;3.00;;;;;;;;;;5056315;28;20364;-87
2023/09/30 10:56:38;;;;;;;9.20;2.63;;;;;;;;;;5055863;28;20464;-87
2023/09/30 10:59:04;;;;;;;10.63;2.97;;;;;;;;;;5056230;28;20516;-87
2023/09/30 11:01:36;;;;;;;17.73;3.40;;;;;;;;;;5053538;28;20021;-87
2023/09/30 11:04:04;;;;;;;14.52;2.85;;;;;;;;;;5053030;28;20020;-87
2023/09/30 11:06:30;;;;;;;14.23;2.40;;;;;;;;;;5056274;28;20036;-88
2023/09/30 11:08:58;;;;;;;12.57;3.10;;;;;;;;;;5055655;28;20013;-88
2023/09/30 11:11:32;;;;;;;13.70;3.28;;;;;;;;;;5054413;28;20023;-88
2023/09/30 11:13:58;;;;;;;18.40;3.33;;;;;;;;;;5053703;28;20443;-88
2023/09/30 11:16:23;;;;;;;7.28;3.42;;;;;;;;;;5054899;28;20108;-88
2023/09/30 11:18:53;;;;;;;10.55;3.50;;;;;;;;;;5052845;28;20457;-89
2023/09/30 11:21:21;;;;;;;15.68;3.45;;;;;;;;;;5053349;28;20448;-89
2023/09/30 11:23:50;;;;;;;18.10;3.22;;;;;;;;;;5053145;28;20025;-88
2023/09/30 11:26:16;;;;;;;6.07;2.30;;;;;;;;;;5051801;28;20036;-86
2023/09/30 11:28:42;;;;;;;14.65;2.47;;;;;;;;;;5054572;28;20502;-88
2023/09/30 11:31:11;;;;;;;7.65;2.53;;;;;;;;;;5056162;28;20017;-87
2023/09/30 11:33:57;;;;;;;6.82;2.72;;;;;;;;;;5056837;28;20345;-88
2023/09/30 11:36:23;;;;;;;12.27;2.88;;;;;;;;;;5053528;28;20387;-88
2023/09/30 11:38:49;;;;;;;9.25;2.53;;;;;;;;;;5055722;28;20017;-88
2023/09/30 11:41:17;;;;;;;8.52;2.80;;;;;;;;;;5055299;28;20023;-87
2023/09/30 11:44:13;;;;;;;12.20;3.70;;;;;;;;;;5058212;28;20028;-88
2023/09/30 11:47:11;;;;;;;11.38;2.92;;;;;;;;;;5051304;28;20189;-88
2023/09/30 11:49:38;;;;;;;10.55;3.42;;;;;;;;;;5033278;28;20044;-88
2023/09/30 11:52:04;;;;;;;7.55;2.67;;;;;;;;;;5079624;28;20518;-88
2023/09/30 11:54:30;;;;;;;9.95;2.70;;;;;;;;;;5073175;28;20020;-88
2023/09/30 11:56:56;;;;;;;8.05;2.25;;;;;;;;;;5090909;28;20555;-89
2023/09/30 11:59:22;;;;;;;8.55;2.35;;;;;;;;;;5054752;28;20062;-80
2023/09/30 12:01:48;;;;;;;8.35;2.58;;;;;;;;;;5050106;28;20562;-80
2023/09/30 12:04:14;;;;;;;11.02;2.40;;;;;;;;;;5040533;28;20364;-80
2023/09/30 12:06:40;;;;;;;6.13;2.03;;;;;;;;;;5077810;28;20028;-89
2023/09/30 12:09:07;;;;;;;8.15;1.85;;;;;;;;;;5053476;28;20414;-89
2023/09/30 12:11:32;;;;;;;7.68;2.13;;;;;;;;;;5053748;28;20040;-88
2023/09/30 12:13:58;;;;;;;10.80;2.03;;;;;;;;;;5053938;28;20065;-88
2023/09/30 12:16:24;;;;;;;9.80;2.38;;;;;;;;;;5044942;28;20111;-89
2023/09/30 12:18:50;;;;;;;9.27;2.47;;;;;;;;;;5055316;28;20111;-89
2023/09/30 12:21:19;;;;;;;9.93;2.30;;;;;;;;;;5052758;28;20383;-88
2023/09/30 12:23:45;;;;;;;7.13;2.58;;;;;;;;;;5054120;28;20096;-89
2023/09/30 12:26:14;;;;;;;5.15;1.80;;;;;;;;;;5071678;28;20056;-89
2023/09/30 12:28:40;;;;;;;7.55;2.55;;;;;;;;;;5053451;28;20060;-88
2023/09/30 12:31:06;;;;;;;5.05;2.17;;;;;;;;;;5051758;28;20025;-89
2023/09/30 12:33:32;;;;;;;6.82;2.50;;;;;;;;;;5069775;28;20031;-89
2023/09/30 12:36:00;;;;;;;12.60;2.80;;;;;;;;;;5052586;28;20137;-89
2023/09/30 12:38:27;;;;;;;9.35;2.40;;;;;;;;;;5054389;28;20021;-89
2023/09/30 12:40:53;;;;;;;8.35;2.67;;;;;;;;;;5052559;28;20484;-94
2023/09/30 12:43:19;;;;;;;5.10;1.80;;;;;;;;;;5065778;28;20432;-93
2023/09/30 12:45:45;;;;;;;10.77;2.75;;;;;;;;;;5082663;28;20048;-94
2023/09/30 12:48:10;;;;;;;11.40;1.95;;;;;;;;;;5063352;28;20511;-94
2023/09/30 12:50:36;;;;;;;8.23;2.45;;;;;;;;;;5061768;28;20448;-94
2023/09/30 12:53:01;;;;;;;6.38;2.08;;;;;;;;;;5060148;28;20056;-94
2023/09/30 12:55:26;;;;;;;6.18;1.90;;;;;;;;;;5059094;28;20024;-93
2023/09/30 12:57:53;;;;;;;6.43;2.03;;;;;;;;;;5060264;28;20012;-94
2023/09/30 13:00:18;;;;;;;4.85;1.92;;;;;;;;;;5059749;28;20017;-94
2023/09/30 13:02:44;;;;;;;8.60;2.15;;;;;;;;;;5059200;28;20107;-94
2023/09/30 13:05:12;;;;;;;7.28;1.63;;;;;;;;;;5060100;28;20024;-94
2023/09/30 13:07:38;;;;;;;6.68;1.83;;;;;;;;;;5059200;28;20027;-92
2023/09/30 13:10:05;;;;;;;7.22;1.60;;;;;;;;;;5059659;28;20144;-93
2023/09/30 13:12:32;;;;;;;8.00;2.10;;;;;;;;;;5059457;28;20036;-94
2023/09/30 13:14:58;;;;;;;6.70;1.40;;;;;;;;;;5057020;28;20467;-95
2023/09/30 13:17:23;;;;;;;5.85;1.92;;;;;;;;;;5058893;28;20016;-94
2023/09/30 13:19:49;;;;;;;8.65;2.13;;;;;;;;;;5092559;28;20035;-94
2023/09/30 13:22:17;;;;;;;9.45;2.47;;;;;;;;;;5059828;28;20019;-94
2023/09/30 13:24:42;;;;;;;5.93;2.42;;;;;;;;;;5057631;28;20115;-95
2023/09/30 13:27:08;;;;;;;12.43;2.15;;;;;;;;;;5057988;28;20060;-94
2023/09/30 13:29:33;;;;;;;8.90;2.75;;;;;;;;;;5057320;28;20024;-95
2023/09/30 13:31:59;;;;;;;6.57;2.22;;;;;;;;;;5056611;28;20386;-94
2023/09/30 13:34:24;;;;;;;9.88;2.10;;;;;;;;;;5058074;28;20025;-94
2023/09/30 13:36:50;;;;;;;9.32;1.63;;;;;;;;;;5055145;28;20025;-93
2023/09/30 13:39:17;;;;;;;4.85;1.77;;;;;;;;;;5076296;28;20005;-94
2023/09/30 13:41:43;;;;;;;7.55;2.38;;;;;;;;;;5058492;28;20115;-94
2023/09/30 13:44:08;;;;;;;7.30;2.38;;;;;;;;;;5058129;28;20048;-93
2023/09/30 13:46:33;;;;;;;7.68;2.22;;;;;;;;;;5056984;28;20027;-93
2023/09/30 13:48:59;;;;;;;8.63;2.47;;;;;;;;;;5075869;28;20032;-94
2023/09/30 13:51:25;;;;;;;6.07;2.05;;;;;;;;;;5057250;28;20021;-94
2023/09/30 13:53:53;;;;;;;5.93;1.80;;;;;;;;;;5059809;28;20498;-94
2023/09/30 13:56:18;;;;;;;7.50;2.03;;;;;;;;;;5063745;28;20009;-94
2023/09/30 13:58:44;;;;;;;7.88;2.50;;;;;;;;;;5083137;28;20107;-94
2023/09/30 14:01:10;;;;;;;8.48;2.25;;;;;;;;;;5079200;28;20024;-94
2023/09/30 14:03:36;;;;;;;9.98;2.22;;;;;;;;;;5056069;28;20488;-95
2023/09/30 14:06:01;;;;;;;6.53;2.22;;;;;;;;;;5061091;28;20028;-94
2023/09/30 14:08:27;;;;;;;14.30;2.22;;;;;;;;;;5061125;28;20020;-94
2023/09/30 14:10:52;;;;;;;10.98;2.38;;;;;;;;;;5077192;28;20471;-94
2023/09/30 14:13:20;;;;;;;9.50;1.90;;;;;;;;;;5058516;28;20024;-94
2023/09/30 14:15:46;;;;;;;8.02;1.85;;;;;;;;;;5059686;28;20055;-94
2023/09/30 14:18:12;;;;;;;5.43;2.15;;;;;;;;;;5059266;28;20024;-92
2023/09/30 14:20:37;;;;;;;6.10;1.90;;;;;;;;;;5057450;28;20025;-93
2023/09/30 14:23:02;;;;;;;8.05;1.80;;;;;;;;;;5057906;28;20024;-93
2023/09/30 14:25:28;;;;;;;9.82;2.25;;;;;;;;;;5058696;28;20025;-94
2023/09/30 14:27:53;;;;;;;8.77;2.38;;;;;;;;;;5058333;28;20020;-94
2023/09/30 14:30:20;;;;;;;5.78;1.83;;;;;;;;;;5056918;28;20494;-94
2023/09/30 14:32:46;;;;;;;5.60;1.92;;;;;;;;;;5058133;28;20036;-94
2023/09/30 14:35:14;;;;;;;5.63;1.73;;;;;;;;;;5058300;28;20025;-94
2023/09/30 14:37:40;;;;;;;7.40;2.67;;;;;;;;;;5058071;28;20025;-94